Portada
METAR-TAF:

METAR-TAF

Aeroports :

Tirupati, Índia

latitud: 13-38-16N, longitud: 79-32-50E, altitud: 107 m

Observació

L'informe es va fer fa 40 minuts, a les 01:00 UTC
Vent 5 kt del Oest
Temperatura 24°C
Humitat 78%
Pressió 1011 hPa
Visibilitat: 6000 m

METAR: VOTP 300100Z 26005KT 6000 NSC 24/20 Q1011

Hora: 07:10 (01:40 UTC)

Pronòstic

L'informe es va fer fa 2 hores i 40 minuts, a les 23:00 UTC
Pronòstic vàlid del 30 a les 00 UTC al 30 a les 09 UTC
Vent 6 kt del Oest/Sud-Oest
Visibilitat: 3000 m
Escasses núvols a una alçada de 1500 ft
boirina, calitja
Evolucionant progressivament
l' 30 a les 03 UTC al 30 a les 05 UTC
Vent 10 kt del Oest/Sud-Oest
Visibilitat: 6000 m
Escasses núvols a una alçada de 1500 ft
Núvols disperses a una alçada de 10000 ft

TAF: VOTP 292300Z 3000/3009 25006KT 3000 BR HZ FEW015 BECMG 3003/3005 25010KT 6000 FEW015 SCT100

Observacions i pronòstics meteorològics de més de 4000 aeroports (METAR i TAF).

Les estacions disponibles són els punts grocs i vermells al mapa.

Posi el ratolí al punt desitjat per veure el nom de l'estació.

Feu clic per veure les observacions i els pronòstics meteorològics.

Per canviar el mapa: feu clic els botons verds amb una creu de color negre per apropar; al botó verd amb un guió per allunyar la imatge; o en les fletxes verdes per a mapes adjacents.


METAR-TAF: